createdAt,value
2023-02-02T00:01:32.249Z,3.88
2023-02-02T00:04:00.572Z,2.80
2023-02-02T00:06:30.272Z,3.08
2023-02-02T00:08:59.841Z,3.13
2023-02-02T00:11:28.375Z,3.13
2023-02-02T00:13:56.874Z,3.63
2023-02-02T00:16:38.007Z,2.70
2023-02-02T00:19:08.074Z,3.03
2023-02-02T00:21:36.031Z,3.30
2023-02-02T00:24:04.320Z,3.10
2023-02-02T00:26:36.050Z,3.50
2023-02-02T00:29:09.356Z,3.25
2023-02-02T00:31:43.295Z,3.10
2023-02-02T00:34:17.272Z,3.17
2023-02-02T00:36:51.414Z,3.20
2023-02-02T00:39:26.314Z,2.95
2023-02-02T00:41:58.354Z,3.47
2023-02-02T00:44:45.447Z,3.00
2023-02-02T00:47:17.427Z,3.10
2023-02-02T00:49:50.877Z,2.88
2023-02-02T00:52:19.114Z,3.08
2023-02-02T00:54:46.900Z,3.00
2023-02-02T00:57:15.707Z,3.03
2023-02-02T00:59:44.756Z,4.00
2023-02-02T01:02:13.236Z,3.10
2023-02-02T01:04:42.469Z,3.15
2023-02-02T01:07:10.118Z,3.85
2023-02-02T01:09:37.884Z,3.00
2023-02-02T01:12:06.034Z,3.33
2023-02-02T01:14:33.747Z,3.72
2023-02-02T01:17:02.483Z,2.95
2023-02-02T01:19:30.454Z,3.60
2023-02-02T01:22:01.107Z,2.97
2023-02-02T01:24:30.278Z,3.22
2023-02-02T01:26:57.983Z,3.08
2023-02-02T01:29:25.850Z,2.83
2023-02-02T01:31:54.052Z,3.30
2023-02-02T01:34:21.791Z,2.95
2023-02-02T01:36:49.484Z,2.92
2023-02-02T01:39:18.866Z,3.40
2023-02-02T01:41:46.552Z,3.20
2023-02-02T01:44:51.999Z,2.92
2023-02-02T01:47:21.481Z,2.83
2023-02-02T01:49:49.454Z,3.20
2023-02-02T01:52:20.950Z,2.97
2023-02-02T01:54:52.903Z,2.72
2023-02-02T01:57:25.271Z,3.08
2023-02-02T01:59:56.735Z,3.10
2023-02-02T02:02:25.832Z,3.25
2023-02-02T02:04:54.984Z,3.35
2023-02-02T02:07:23.290Z,2.55
2023-02-02T02:09:52.823Z,2.50
2023-02-02T02:12:20.604Z,3.17
2023-02-02T02:15:10.337Z,3.75
2023-02-02T02:17:55.406Z,2.75
2023-02-02T02:21:17.150Z,3.13
2023-02-02T02:24:36.473Z,2.60
2023-02-02T02:27:34.786Z,2.65
2023-02-02T02:30:43.166Z,3.28
2023-02-02T02:33:17.115Z,3.17
2023-02-02T02:35:55.040Z,3.33
2023-02-02T02:38:31.172Z,3.42
2023-02-02T02:41:05.018Z,2.67
2023-02-02T02:43:35.599Z,3.05
2023-02-02T02:46:06.730Z,3.58
2023-02-02T02:48:35.861Z,4.43
2023-02-02T02:51:08.668Z,2.80
2023-02-02T02:53:38.657Z,3.13
2023-02-02T02:56:17.538Z,3.25
2023-02-02T02:58:56.450Z,3.60
2023-02-02T03:01:35.343Z,3.20
2023-02-02T03:04:11.139Z,3.42
2023-02-02T03:06:45.922Z,3.00
2023-02-02T03:09:16.762Z,2.80
2023-02-02T03:11:44.833Z,2.40
2023-02-02T03:14:12.631Z,3.53
2023-02-02T03:16:40.541Z,2.95
2023-02-02T03:19:10.038Z,3.25
2023-02-02T03:21:37.936Z,4.65
2023-02-02T03:24:06.699Z,2.78
2023-02-02T03:26:34.859Z,3.00
2023-02-02T03:29:03.323Z,3.13
2023-02-02T03:31:31.687Z,3.10
2023-02-02T03:33:59.501Z,3.50
2023-02-02T03:36:28.710Z,3.50
2023-02-02T03:38:56.464Z,4.10
2023-02-02T03:41:24.140Z,3.42
2023-02-02T03:43:51.807Z,3.47
2023-02-02T03:46:20.168Z,3.28
2023-02-02T03:48:47.975Z,3.80
2023-02-02T03:51:16.890Z,3.78
2023-02-02T03:53:47.437Z,3.97
2023-02-02T03:56:15.481Z,3.58
2023-02-02T03:58:43.415Z,3.05
2023-02-02T04:01:14.035Z,3.15
2023-02-02T04:03:41.709Z,2.80
2023-02-02T04:06:09.725Z,2.70
2023-02-02T04:08:39.332Z,3.20
2023-02-02T04:11:11.587Z,2.85
2023-02-02T04:13:39.892Z,3.08
2023-02-02T04:16:08.042Z,3.20
2023-02-02T04:18:37.776Z,2.40
2023-02-02T04:21:07.542Z,3.17
2023-02-02T04:23:35.331Z,2.60
2023-02-02T04:26:03.585Z,3.17
2023-02-02T04:28:33.195Z,3.40
2023-02-02T04:31:01.094Z,3.08
2023-02-02T04:33:29.779Z,3.13
2023-02-02T04:35:57.767Z,2.80
2023-02-02T04:38:25.534Z,2.72
2023-02-02T04:40:53.635Z,2.95
2023-02-02T04:43:21.295Z,2.78
2023-02-02T04:45:56.514Z,3.25
2023-02-02T04:48:24.400Z,2.85
2023-02-02T04:50:52.248Z,2.80
2023-02-02T04:53:19.976Z,3.10
2023-02-02T04:55:47.624Z,2.95
2023-02-02T04:58:15.384Z,2.75
2023-02-02T05:00:43.027Z,2.58
2023-02-02T05:03:12.864Z,3.00
2023-02-02T05:05:40.747Z,2.72
2023-02-02T05:08:10.041Z,2.65
2023-02-02T05:10:41.104Z,2.92
2023-02-02T05:13:09.092Z,3.00
2023-02-02T05:15:37.371Z,2.30
2023-02-02T05:18:05.537Z,2.85
2023-02-02T05:20:34.516Z,3.00
2023-02-02T05:23:02.171Z,3.22
2023-02-02T05:25:30.157Z,6.78
2023-02-02T05:27:58.529Z,3.75
2023-02-02T05:30:27.085Z,2.42
2023-02-02T05:32:54.799Z,2.92
2023-02-02T05:35:22.621Z,2.42
2023-02-02T05:37:51.791Z,2.60
2023-02-02T05:40:19.692Z,3.05
2023-02-02T05:42:49.115Z,2.83
2023-02-02T05:45:17.785Z,2.58
2023-02-02T05:47:45.788Z,2.28
2023-02-02T05:50:14.658Z,2.42
2023-02-02T05:52:46.006Z,2.60
2023-02-02T05:55:18.006Z,2.30
2023-02-02T05:57:45.920Z,2.50
2023-02-02T06:00:15.773Z,2.28
2023-02-02T06:02:43.397Z,2.78
2023-02-02T06:05:11.343Z,2.35
2023-02-02T06:07:39.202Z,3.17
2023-02-02T06:10:07.823Z,2.88
2023-02-02T06:12:36.985Z,2.50
2023-02-02T06:15:07.705Z,3.20
2023-02-02T06:17:35.536Z,2.70
2023-02-02T06:20:03.235Z,3.10
2023-02-02T06:22:32.341Z,2.60
2023-02-02T06:25:00.368Z,2.92
2023-02-02T06:27:28.082Z,2.90
2023-02-02T06:29:57.239Z,3.40
2023-02-02T06:32:25.344Z,3.00
2023-02-02T06:34:53.588Z,3.50
2023-02-02T06:37:21.305Z,3.50
2023-02-02T06:39:48.996Z,3.10
2023-02-02T06:42:21.636Z,3.22
2023-02-02T06:44:50.132Z,4.22
2023-02-02T06:47:20.486Z,3.30
2023-02-02T06:49:48.741Z,2.70
2023-02-02T06:52:17.482Z,3.75
2023-02-02T06:54:45.518Z,3.00
2023-02-02T06:57:13.243Z,3.58
2023-02-02T06:59:41.642Z,4.13
2023-02-02T07:02:12.365Z,3.00
2023-02-02T07:04:41.440Z,2.83
2023-02-02T07:07:15.802Z,2.80
2023-02-02T07:09:57.877Z,3.03
2023-02-02T07:12:29.128Z,3.05
2023-02-02T07:14:57.608Z,3.35
2023-02-02T07:17:25.420Z,2.80
2023-02-02T07:19:55.291Z,3.17
2023-02-02T07:22:23.209Z,2.97
2023-02-02T07:25:02.401Z,3.38
2023-02-02T07:27:31.046Z,2.55
2023-02-02T07:29:58.760Z,2.90
2023-02-02T07:32:27.072Z,2.85
2023-02-02T07:34:56.496Z,3.97
2023-02-02T07:37:24.321Z,3.50
2023-02-02T07:39:52.389Z,3.10
2023-02-02T07:42:21.666Z,3.00
2023-02-02T07:44:50.110Z,3.03
2023-02-02T07:47:18.530Z,3.28
2023-02-02T07:49:46.842Z,2.92
2023-02-02T07:52:16.879Z,3.20
2023-02-02T07:54:44.804Z,3.08
2023-02-02T07:57:13.717Z,4.63
2023-02-02T07:59:41.392Z,3.50
2023-02-02T08:02:10.951Z,2.80
2023-02-02T08:04:38.664Z,3.05
2023-02-02T08:07:06.596Z,2.78
2023-02-02T08:09:35.788Z,2.45
2023-02-02T08:12:03.494Z,3.63
2023-02-02T08:14:32.672Z,2.58
2023-02-02T08:17:00.600Z,2.63
2023-02-02T08:19:29.127Z,3.88
2023-02-02T08:21:56.842Z,2.30
2023-02-02T08:24:25.214Z,2.65
2023-02-02T08:26:54.386Z,3.58
2023-02-02T08:29:22.462Z,3.05
2023-02-02T08:31:50.582Z,2.67
2023-02-02T08:34:18.558Z,2.22
2023-02-02T08:36:46.239Z,3.25
2023-02-02T08:39:14.417Z,2.30
2023-02-02T08:41:43.133Z,3.00
2023-02-02T08:44:15.549Z,2.88
2023-02-02T08:46:43.747Z,8.30
2023-02-02T08:49:12.777Z,3.30
2023-02-02T08:51:40.558Z,2.70
2023-02-02T08:54:08.300Z,2.95
2023-02-02T08:56:36.123Z,2.55
2023-02-02T08:59:05.286Z,2.17
2023-02-02T09:01:35.628Z,2.60
2023-02-02T09:04:05.242Z,2.13
2023-02-02T09:06:35.459Z,2.70
2023-02-02T09:09:03.749Z,2.63
2023-02-02T09:11:31.633Z,2.45
2023-02-02T09:14:01.012Z,2.20
2023-02-02T09:16:29.548Z,2.53
2023-02-02T09:19:01.579Z,2.20
2023-02-02T09:21:29.725Z,2.42
2023-02-02T09:23:57.696Z,2.35
2023-02-02T09:26:28.153Z,1.95
2023-02-02T09:28:58.192Z,2.05
2023-02-02T09:31:27.572Z,1.88
2023-02-02T09:33:55.579Z,1.92
2023-02-02T09:36:26.775Z,2.10
2023-02-02T09:38:55.102Z,1.90
2023-02-02T09:42:13.597Z,2.00
2023-02-02T09:44:58.133Z,2.92
2023-02-02T09:47:41.014Z,2.17
2023-02-02T09:50:19.378Z,2.22
2023-02-02T09:52:54.658Z,3.65
2023-02-02T09:55:31.374Z,2.47
2023-02-02T09:58:06.662Z,1.90
2023-02-02T10:00:38.328Z,2.13
2023-02-02T10:03:15.931Z,2.38
2023-02-02T10:05:49.901Z,2.40
2023-02-02T10:08:34.387Z,2.25
2023-02-02T10:11:16.318Z,2.13
2023-02-02T10:13:45.980Z,1.90
2023-02-02T10:16:18.064Z,1.88
2023-02-02T10:18:51.580Z,2.30
2023-02-02T10:21:28.532Z,2.00
2023-02-02T10:23:59.263Z,2.72
2023-02-02T10:26:46.723Z,1.60
2023-02-02T10:29:18.722Z,1.73
2023-02-02T10:31:59.652Z,2.53
2023-02-02T10:34:32.432Z,2.42
2023-02-02T10:37:18.581Z,2.38
2023-02-02T10:40:08.536Z,1.63
2023-02-02T10:42:45.422Z,1.42
2023-02-02T10:45:18.474Z,1.10
2023-02-02T10:47:46.736Z,1.70
2023-02-02T10:50:20.280Z,2.00
2023-02-02T10:52:53.245Z,1.30
2023-02-02T10:55:33.259Z,1.35
2023-02-02T10:58:15.597Z,1.80
2023-02-02T11:00:50.886Z,1.42
2023-02-02T11:03:21.565Z,1.70
2023-02-02T11:06:07.096Z,1.63
2023-02-02T11:08:37.563Z,1.40
2023-02-02T11:11:13.613Z,2.13
2023-02-02T11:13:46.319Z,1.60
2023-02-02T11:16:32.689Z,1.33
2023-02-02T11:19:24.293Z,1.70
2023-02-02T11:21:56.611Z,1.50
2023-02-02T11:24:28.470Z,1.88
2023-02-02T11:27:01.859Z,1.63
2023-02-02T11:29:33.978Z,1.27
2023-02-02T11:32:20.232Z,1.30
2023-02-02T11:34:48.009Z,1.60
2023-02-02T11:37:17.368Z,1.75
2023-02-02T11:39:45.323Z,1.38
2023-02-02T11:42:18.220Z,1.80
2023-02-02T11:44:50.607Z,1.27
2023-02-02T11:47:22.310Z,1.17
2023-02-02T11:49:51.752Z,1.45
2023-02-02T11:52:23.058Z,1.30
2023-02-02T11:54:52.395Z,1.00
2023-02-02T11:57:23.468Z,1.25
2023-02-02T11:59:53.836Z,1.50
2023-02-02T12:02:31.100Z,1.05
2023-02-02T12:05:16.001Z,1.30
2023-02-02T12:07:45.562Z,1.25
2023-02-02T12:10:19.011Z,1.65
2023-02-02T12:12:57.385Z,1.33
2023-02-02T12:15:38.643Z,1.40
2023-02-02T12:18:19.903Z,1.58
2023-02-02T12:20:55.729Z,1.90
2023-02-02T12:23:38.011Z,1.38
2023-02-02T12:26:21.368Z,1.00
2023-02-02T12:29:08.812Z,1.30
2023-02-02T12:31:46.630Z,1.08
2023-02-02T12:34:24.765Z,1.30
2023-02-02T12:37:03.488Z,1.05
2023-02-02T12:39:44.196Z,0.93
2023-02-02T12:42:26.039Z,1.40
2023-02-02T12:45:14.841Z,1.27
2023-02-02T12:47:49.680Z,1.02
2023-02-02T12:50:27.774Z,1.00
2023-02-02T12:53:08.824Z,1.02
2023-02-02T12:55:45.097Z,1.08
2023-02-02T12:58:25.730Z,1.38
2023-02-02T13:01:29.152Z,0.88
2023-02-02T13:04:13.117Z,1.10
2023-02-02T13:07:02.164Z,0.80
2023-02-02T13:09:34.743Z,1.23
2023-02-02T13:12:08.748Z,0.80
2023-02-02T13:14:42.131Z,1.00
2023-02-02T13:17:16.353Z,1.13
2023-02-02T13:19:48.271Z,0.90
2023-02-02T13:22:33.572Z,0.98
2023-02-02T13:25:04.079Z,0.88
2023-02-02T13:27:32.580Z,1.50
2023-02-02T13:30:05.765Z,1.40
2023-02-02T13:32:38.080Z,1.20
2023-02-02T13:35:17.411Z,1.02
2023-02-02T13:37:52.835Z,1.00
2023-02-02T13:40:28.720Z,0.93
2023-02-02T13:43:05.037Z,0.93
2023-02-02T13:45:49.605Z,0.95
2023-02-02T13:48:30.543Z,0.70
2023-02-02T13:51:21.031Z,0.80
2023-02-02T13:54:15.600Z,1.00
2023-02-02T13:56:54.204Z,0.80
2023-02-02T13:59:38.479Z,1.10
2023-02-02T14:02:09.754Z,0.65
2023-02-02T14:04:40.554Z,1.00
2023-02-02T14:09:39.273Z,0.82
2023-02-02T14:12:10.701Z,1.00
2023-02-02T14:14:40.639Z,0.85
2023-02-02T14:17:29.561Z,0.80
2023-02-02T14:19:59.471Z,0.80
2023-02-02T14:22:45.571Z,0.80
2023-02-02T14:25:56.564Z,1.10
2023-02-02T14:28:49.595Z,1.02
2023-02-02T14:31:29.752Z,0.80
2023-02-02T14:34:27.326Z,1.17
2023-02-02T14:37:20.789Z,0.77
2023-02-02T14:39:59.090Z,0.75
2023-02-02T14:43:09.726Z,0.90
2023-02-02T14:45:39.394Z,0.98
2023-02-02T14:48:11.394Z,0.95
2023-02-02T14:50:50.661Z,1.00
2023-02-02T14:53:24.308Z,1.13
2023-02-02T14:55:57.242Z,0.75
2023-02-02T14:58:30.679Z,1.30
2023-02-02T15:01:09.354Z,1.23
2023-02-02T15:03:51.091Z,1.30
2023-02-02T15:06:32.112Z,1.48
2023-02-02T15:09:36.671Z,1.00
2023-02-02T15:12:24.816Z,1.00
2023-02-02T15:15:00.263Z,0.95
2023-02-02T15:17:35.727Z,1.27
2023-02-02T15:20:13.566Z,0.85
2023-02-02T15:22:46.742Z,1.13
2023-02-02T15:25:22.728Z,0.90
2023-02-02T15:27:57.452Z,0.80
2023-02-02T15:30:30.383Z,1.00
2023-02-02T15:32:58.681Z,1.13
2023-02-02T15:35:31.947Z,0.82
2023-02-02T15:38:04.774Z,1.00
2023-02-02T15:40:38.340Z,1.25
2023-02-02T15:43:09.189Z,1.10
2023-02-02T15:45:45.714Z,1.10
2023-02-02T15:48:26.752Z,1.10
2023-02-02T15:50:55.934Z,1.08
2023-02-02T15:53:27.604Z,1.30
2023-02-02T15:55:57.925Z,1.40
2023-02-02T15:58:29.496Z,1.10
2023-02-02T16:01:03.257Z,1.38
2023-02-02T16:03:47.823Z,1.60
2023-02-02T16:06:15.621Z,1.30
2023-02-02T16:08:43.394Z,1.42
2023-02-02T16:11:15.650Z,1.13
2023-02-02T16:13:54.738Z,1.30
2023-02-02T16:16:25.606Z,1.80
2023-02-02T16:19:04.415Z,1.65
2023-02-02T16:21:33.152Z,2.03
2023-02-02T16:24:02.836Z,2.05
2023-02-02T16:26:34.250Z,1.67
2023-02-02T16:29:02.517Z,2.40
2023-02-02T16:31:32.162Z,2.45
2023-02-02T16:34:02.502Z,2.40
2023-02-02T16:36:31.027Z,2.97
2023-02-02T16:39:01.449Z,2.40
2023-02-02T16:41:32.140Z,2.20
2023-02-02T16:44:32.507Z,2.88
2023-02-02T16:47:01.940Z,2.58
2023-02-02T16:49:30.754Z,2.65
2023-02-02T16:52:12.616Z,2.10
2023-02-02T16:54:43.394Z,2.15
2023-02-02T16:57:19.097Z,3.35
2023-02-02T16:59:52.795Z,2.40
2023-02-02T17:02:27.458Z,2.50
2023-02-02T17:05:02.137Z,2.25
2023-02-02T17:07:32.901Z,2.20
2023-02-02T17:10:24.445Z,2.30
2023-02-02T17:12:52.916Z,2.40
2023-02-02T17:15:33.363Z,3.55
2023-02-02T17:18:05.085Z,2.30
2023-02-02T17:20:34.481Z,2.45
2023-02-02T17:23:04.888Z,2.47
2023-02-02T17:25:37.723Z,2.63
2023-02-02T17:28:10.872Z,4.20
2023-02-02T17:30:41.249Z,4.07
2023-02-02T17:33:14.590Z,4.18
2023-02-02T17:35:53.722Z,4.53
2023-02-02T17:38:24.138Z,2.90
2023-02-02T17:40:53.714Z,3.28
2023-02-02T17:43:21.792Z,3.38
2023-02-02T17:45:51.314Z,2.65
2023-02-02T17:48:19.047Z,2.80
2023-02-02T17:50:46.997Z,2.10
2023-02-02T17:53:16.642Z,2.10
2023-02-02T17:55:46.149Z,2.80
2023-02-02T17:58:17.362Z,3.15
2023-02-02T18:00:46.977Z,2.40
2023-02-02T18:03:20.609Z,2.25
2023-02-02T18:05:48.461Z,2.80
2023-02-02T18:08:16.649Z,3.72
2023-02-02T18:10:44.667Z,2.72
2023-02-02T18:13:16.040Z,3.13
2023-02-02T18:15:44.305Z,3.03
2023-02-02T18:18:12.840Z,5.65
2023-02-02T18:20:44.090Z,3.92
2023-02-02T18:23:12.589Z,2.45
2023-02-02T18:25:40.896Z,3.30
2023-02-02T18:28:09.464Z,3.22
2023-02-02T18:30:38.952Z,2.90
2023-02-02T18:33:09.096Z,2.97
2023-02-02T18:35:37.250Z,3.22
2023-02-02T18:38:06.458Z,3.30
2023-02-02T18:40:34.293Z,3.00
2023-02-02T18:43:02.286Z,3.53
2023-02-02T18:45:30.015Z,3.17
2023-02-02T18:47:58.174Z,3.03
2023-02-02T18:50:26.031Z,2.78
2023-02-02T18:52:54.468Z,3.88
2023-02-02T18:55:23.943Z,2.92
2023-02-02T18:58:00.568Z,3.20
2023-02-02T19:00:29.023Z,3.22
2023-02-02T19:02:57.883Z,2.97
2023-02-02T19:05:45.597Z,3.28
2023-02-02T19:08:13.295Z,3.28
2023-02-02T19:10:42.817Z,2.78
2023-02-02T19:13:17.945Z,3.30
2023-02-02T19:15:47.110Z,3.47
2023-02-02T19:18:18.685Z,2.90
2023-02-02T19:20:47.471Z,3.85
2023-02-02T19:23:17.436Z,3.75
2023-02-02T19:25:51.288Z,3.55
2023-02-02T19:28:23.978Z,2.97
2023-02-02T19:30:53.373Z,3.22
2023-02-02T19:33:21.940Z,3.45
2023-02-02T19:35:53.013Z,4.00
2023-02-02T19:38:21.467Z,4.25
2023-02-02T19:40:50.765Z,3.60
2023-02-02T19:43:26.322Z,4.30
2023-02-02T19:45:55.139Z,3.97
2023-02-02T19:48:27.110Z,4.15
2023-02-02T19:50:56.432Z,4.50
2023-02-02T19:53:28.265Z,3.97
2023-02-02T19:55:57.929Z,5.68
2023-02-02T19:58:29.753Z,4.15
2023-02-02T20:00:59.160Z,4.10
2023-02-02T20:03:29.439Z,3.83
2023-02-02T20:05:58.787Z,3.63
2023-02-02T20:08:31.862Z,3.88
2023-02-02T20:11:07.812Z,4.30
2023-02-02T20:13:40.116Z,3.90
2023-02-02T20:16:12.882Z,4.03
2023-02-02T20:18:45.437Z,4.28
2023-02-02T20:21:21.259Z,3.55
2023-02-02T20:23:49.637Z,4.10
2023-02-02T20:26:27.271Z,3.45
2023-02-02T20:28:56.525Z,3.88
2023-02-02T20:31:26.663Z,3.78
2023-02-02T20:33:58.312Z,3.60
2023-02-02T20:36:37.882Z,4.00
2023-02-02T20:39:23.739Z,3.55
2023-02-02T20:41:55.050Z,3.88
2023-02-02T20:44:23.103Z,3.92
2023-02-02T20:46:50.796Z,3.70
2023-02-02T20:49:20.712Z,3.58
2023-02-02T20:51:48.973Z,3.65
2023-02-02T20:54:16.758Z,3.78
2023-02-02T20:56:45.329Z,4.05
2023-02-02T20:59:14.735Z,3.88
2023-02-02T21:01:42.733Z,4.30
2023-02-02T21:04:10.661Z,5.38
2023-02-02T21:06:41.231Z,4.93
2023-02-02T21:09:10.830Z,5.03
2023-02-02T21:11:39.282Z,4.47
2023-02-02T21:14:07.205Z,4.10
2023-02-02T21:16:36.315Z,3.50
2023-02-02T21:19:04.486Z,3.88
2023-02-02T21:21:32.492Z,3.75
2023-02-02T21:24:01.172Z,3.63
2023-02-02T21:26:30.587Z,3.95
2023-02-02T21:29:00.533Z,4.18
2023-02-02T21:31:28.884Z,4.18
2023-02-02T21:33:58.051Z,3.67
2023-02-02T21:36:35.647Z,3.13
2023-02-02T21:39:15.204Z,6.22
2023-02-02T21:41:43.016Z,6.30
2023-02-02T21:44:14.422Z,3.92
2023-02-02T21:46:42.835Z,4.35
2023-02-02T21:49:21.692Z,5.05
2023-02-02T21:51:50.036Z,4.28
2023-02-02T21:54:22.848Z,4.07
2023-02-02T21:56:51.251Z,4.22
2023-02-02T21:59:21.049Z,3.70
2023-02-02T22:01:50.493Z,4.30
2023-02-02T22:04:24.886Z,3.60
2023-02-02T22:06:54.353Z,3.83
2023-02-02T22:09:24.483Z,3.90
2023-02-02T22:11:55.611Z,4.50
2023-02-02T22:14:28.080Z,3.95
2023-02-02T22:16:58.331Z,3.88
2023-02-02T22:19:30.299Z,3.80
2023-02-02T22:22:19.404Z,4.47
2023-02-02T22:24:54.267Z,3.85
2023-02-02T22:27:24.468Z,4.57
2023-02-02T22:29:59.153Z,4.05
2023-02-02T22:32:26.866Z,4.10
2023-02-02T22:34:56.346Z,4.47
2023-02-02T22:37:24.648Z,4.07
2023-02-02T22:39:52.325Z,4.35
2023-02-02T22:42:20.094Z,3.83
2023-02-02T22:44:48.382Z,3.85
2023-02-02T22:47:16.160Z,4.30
2023-02-02T22:49:43.984Z,3.55
2023-02-02T22:52:13.002Z,4.50
2023-02-02T22:54:40.999Z,4.20
2023-02-02T22:57:08.813Z,4.00
2023-02-02T22:59:37.169Z,4.70
2023-02-02T23:02:05.212Z,5.20
2023-02-02T23:04:33.028Z,5.00
2023-02-02T23:07:00.717Z,4.80
2023-02-02T23:09:29.896Z,5.10
2023-02-02T23:11:57.552Z,4.32
2023-02-02T23:14:25.317Z,4.43
2023-02-02T23:16:53.601Z,5.22
2023-02-02T23:19:21.315Z,5.03
2023-02-02T23:21:49.096Z,4.82
2023-02-02T23:24:16.811Z,5.45
2023-02-02T23:26:45.861Z,4.78
2023-02-02T23:29:13.483Z,5.20
2023-02-02T23:31:41.245Z,4.85
2023-02-02T23:34:09.599Z,4.35
2023-02-02T23:36:37.407Z,4.70
2023-02-02T23:39:05.490Z,12.00
2023-02-02T23:41:33.286Z,5.47
2023-02-02T23:44:02.617Z,4.97
2023-02-02T23:46:31.681Z,4.38
2023-02-02T23:49:00.617Z,4.55
2023-02-02T23:51:28.718Z,4.90
2023-02-02T23:53:56.825Z,4.18
2023-02-02T23:56:24.747Z,4.45
2023-02-02T23:58:52.455Z,5.22
